Time;durP1;ratioP1;P1;durP2;ratioP2;P2;SDS_P1;SDS_P2;PMS_P1;PMS_P2;Temp;Humidity;BMP_temperature;BMP_pressure;BME280_temperature;BME280_humidity;BME280_pressure;Samples;Min_cycle;Max_cycle;Signal;HPM_P1;HPM_P2
2022/07/13 00:01:30;;;;;;;2.22;1.05;;;19.50;83.10;;;;;;5052029;28;20043;-77
2022/07/13 00:03:56;;;;;;;4.85;1.10;;;19.50;83.50;;;;;;5065012;28;20025;-78
2022/07/13 00:06:22;;;;;;;2.70;1.13;;;19.50;83.90;;;;;;5068123;28;20067;-77
2022/07/13 00:08:47;;;;;;;2.85;1.50;;;19.40;84.00;;;;;;5060888;28;20458;-77
2022/07/13 00:11:12;;;;;;;1.95;1.25;;;19.40;84.00;;;;;;5062442;28;20036;-79
2022/07/13 00:13:38;;;;;;;1.73;0.70;;;19.40;84.30;;;;;;5074642;28;20538;-77
2022/07/13 00:16:04;;;;;;;1.90;1.20;;;19.40;84.50;;;;;;5058618;28;20093;-79
2022/07/13 00:18:29;;;;;;;1.50;1.15;;;19.30;84.40;;;;;;5063030;28;20065;-78
2022/07/13 00:20:55;;;;;;;1.63;1.10;;;19.30;84.70;;;;;;5067835;28;20462;-77
2022/07/13 00:23:20;;;;;;;2.63;1.10;;;19.30;84.50;;;;;;5064581;28;20036;-80
2022/07/13 00:25:46;;;;;;;2.03;0.95;;;19.30;84.60;;;;;;5064387;28;20036;-77
2022/07/13 00:28:11;;;;;;;1.65;0.95;;;19.30;84.70;;;;;;5084773;28;20024;-78
2022/07/13 00:30:37;;;;;;;2.03;1.02;;;19.30;85.00;;;;;;5064786;28;20468;-79
2022/07/13 00:33:04;;;;;;;2.20;0.90;;;19.30;85.10;;;;;;5068692;28;20024;-77
2022/07/13 00:35:30;;;;;;;3.45;1.08;;;19.30;85.20;;;;;;5066257;28;20036;-77
2022/07/13 00:37:55;;;;;;;1.80;1.10;;;19.20;85.40;;;;;;5070183;28;20028;-79
2022/07/13 00:40:21;;;;;;;1.48;1.00;;;19.20;85.70;;;;;;5070772;28;20032;-77
2022/07/13 00:42:46;;;;;;;4.20;1.08;;;19.20;85.90;;;;;;5062188;28;20041;-76
2022/07/13 00:45:12;;;;;;;2.97;1.20;;;19.10;86.30;;;;;;5065807;28;20044;-77
2022/07/13 00:47:38;;;;;;;1.95;1.10;;;19.10;86.20;;;;;;5063963;28;20037;-78
2022/07/13 00:50:06;;;;;;;1.17;0.82;;;19.10;86.30;;;;;;5064526;28;20108;-77
2022/07/13 00:52:32;;;;;;;2.17;1.20;;;19.10;86.70;;;;;;5063236;28;20029;-78
2022/07/13 00:54:58;;;;;;;2.35;1.08;;;19.10;86.90;;;;;;5072038;28;20068;-80
2022/07/13 00:57:26;;;;;;;4.50;0.98;;;19.10;87.10;;;;;;5082189;28;20060;-80
2022/07/13 00:59:52;;;;;;;2.22;1.27;;;19.20;87.30;;;;;;5064518;28;20071;-80
2022/07/13 01:02:18;;;;;;;3.25;1.08;;;19.20;87.70;;;;;;5068036;28;20060;-78
2022/07/13 01:04:43;;;;;;;3.00;1.00;;;19.20;87.90;;;;;;5043271;28;20458;-78
2022/07/13 01:07:09;;;;;;;2.75;1.20;;;19.20;88.30;;;;;;5049777;28;20044;-77
2022/07/13 01:09:35;;;;;;;5.15;1.15;;;19.20;88.60;;;;;;5069015;28;20112;-81
2022/07/13 01:12:01;;;;;;;2.22;1.10;;;19.20;88.60;;;;;;5066776;28;20028;-78
2022/07/13 01:14:27;;;;;;;1.30;1.02;;;19.30;88.50;;;;;;5063206;28;20032;-77
2022/07/13 01:16:53;;;;;;;3.58;1.20;;;19.30;88.30;;;;;;5063685;28;20037;-78
2022/07/13 01:19:20;;;;;;;5.22;1.48;;;19.30;88.20;;;;;;5050022;28;20082;-78
2022/07/13 01:21:48;;;;;;;1.85;1.38;;;19.40;88.50;;;;;;5054506;28;20060;-77
2022/07/13 01:24:14;;;;;;;1.85;1.38;;;19.40;88.50;;;;;;5070583;28;20032;-78
2022/07/13 01:26:40;;;;;;;1.90;1.00;;;19.40;88.50;;;;;;5072065;28;20033;-78
2022/07/13 01:29:06;;;;;;;6.15;1.17;;;19.40;88.60;;;;;;5058878;28;20068;-77
2022/07/13 01:31:40;;;;;;;1.63;1.02;;;19.50;88.70;;;;;;5062217;28;20036;-78
2022/07/13 01:34:07;;;;;;;5.00;1.52;;;19.50;88.60;;;;;;5063669;28;20033;-77
2022/07/13 01:36:35;;;;;;;3.17;1.17;;;19.50;88.40;;;;;;5067842;28;20135;-81
2022/07/13 01:39:01;;;;;;;1.75;1.20;;;19.50;88.90;;;;;;5065722;28;20029;-78
2022/07/13 01:41:31;;;;;;;1.73;1.15;;;19.50;88.30;;;;;;5059376;28;20048;-78
2022/07/13 01:43:57;;;;;;;1.83;1.00;;;19.60;88.50;;;;;;5044715;28;20376;-77
2022/07/13 01:46:24;;;;;;;1.48;1.10;;;19.60;88.30;;;;;;5064611;28;20490;-78
2022/07/13 01:48:50;;;;;;;2.33;1.35;;;19.60;88.40;;;;;;5058613;28;20043;-78
2022/07/13 01:51:16;;;;;;;2.15;1.10;;;19.60;88.50;;;;;;5048069;28;20033;-78
2022/07/13 01:53:41;;;;;;;1.65;1.00;;;19.70;88.80;;;;;;5060688;28;20016;-79
2022/07/13 01:56:07;;;;;;;2.70;0.98;;;19.70;88.70;;;;;;5071377;28;20044;-81
2022/07/13 01:58:32;;;;;;;4.78;1.27;;;19.70;88.80;;;;;;5067013;28;20390;-78
2022/07/13 02:00:58;;;;;;;2.20;0.93;;;19.70;89.00;;;;;;5069768;28;20111;-78
2022/07/13 02:03:24;;;;;;;3.00;1.30;;;19.70;89.10;;;;;;5061231;28;20106;-78
2022/07/13 02:05:50;;;;;;;2.25;1.00;;;19.70;88.90;;;;;;5066942;28;20517;-80
2022/07/13 02:08:15;;;;;;;1.90;1.20;;;19.80;88.60;;;;;;5049675;28;20108;-79
2022/07/13 02:10:41;;;;;;;4.70;1.52;;;19.80;88.20;;;;;;5065963;28;20036;-78
2022/07/13 02:13:11;;;;;;;1.50;0.85;;;19.80;88.00;;;;;;5035919;28;20068;-79
2022/07/13 02:15:36;;;;;;;1.85;1.02;;;19.80;87.70;;;;;;5061858;28;20055;-78
2022/07/13 02:18:02;;;;;;;1.55;0.90;;;19.80;87.60;;;;;;5071172;28;20131;-80
2022/07/13 02:20:28;;;;;;;3.10;1.25;;;19.90;87.80;;;;;;5057307;28;20108;-78
2022/07/13 02:22:53;;;;;;;2.25;0.88;;;19.90;87.60;;;;;;5072758;28;20073;-78
2022/07/13 02:25:18;;;;;;;1.77;1.23;;;19.90;87.40;;;;;;5069416;28;20603;-78
2022/07/13 02:27:44;;;;;;;2.95;0.90;;;19.90;87.20;;;;;;5067973;28;20028;-77
2022/07/13 02:30:12;;;;;;;1.30;1.05;;;19.90;87.40;;;;;;5061528;28;20465;-78
2022/07/13 02:32:37;;;;;;;1.77;0.77;;;19.90;87.70;;;;;;5057823;28;20033;-78
2022/07/13 02:35:04;;;;;;;4.22;1.02;;;19.90;87.70;;;;;;5060258;28;20558;-78
2022/07/13 02:37:29;;;;;;;1.23;1.10;;;19.90;87.60;;;;;;5070549;28;20116;-78
2022/07/13 02:39:56;;;;;;;1.35;1.10;;;19.90;87.40;;;;;;5065567;28;20085;-78
2022/07/13 02:42:22;;;;;;;1.75;1.02;;;19.90;87.30;;;;;;5035588;28;20589;-78
2022/07/13 02:44:49;;;;;;;1.10;0.75;;;19.90;87.30;;;;;;5055266;28;20048;-79
2022/07/13 02:47:15;;;;;;;1.55;0.77;;;20.00;87.30;;;;;;5071603;28;20036;-80
2022/07/13 02:49:40;;;;;;;1.10;0.88;;;19.90;87.30;;;;;;5072153;28;20054;-77
2022/07/13 02:52:06;;;;;;;1.02;0.80;;;19.90;86.70;;;;;;5062506;28;20034;-80
2022/07/13 02:54:32;;;;;;;2.47;0.90;;;19.90;86.70;;;;;;5069358;28;20032;-78
2022/07/13 02:56:57;;;;;;;1.88;1.00;;;19.90;86.10;;;;;;5064399;28;20047;-78
2022/07/13 02:59:23;;;;;;;1.45;0.68;;;19.90;86.00;;;;;;5064900;28;20035;-78
2022/07/13 03:01:48;;;;;;;2.50;0.90;;;20.00;86.00;;;;;;5050587;28;20064;-78
2022/07/13 03:04:14;;;;;;;2.15;0.80;;;20.00;85.70;;;;;;5071968;28;20056;-80
2022/07/13 03:06:39;;;;;;;1.42;1.00;;;19.90;85.60;;;;;;5067948;28;20045;-77
2022/07/13 03:09:04;;;;;;;1.38;0.93;;;20.00;85.70;;;;;;5063691;28;20040;-78
2022/07/13 03:11:30;;;;;;;1.05;0.93;;;19.90;86.10;;;;;;5058951;28;20044;-77
2022/07/13 03:13:56;;;;;;;1.65;1.00;;;20.00;86.10;;;;;;5068214;28;20060;-78
2022/07/13 03:16:21;;;;;;;1.70;0.80;;;20.00;86.20;;;;;;5059215;28;20497;-79
2022/07/13 03:18:46;;;;;;;3.13;1.00;;;20.00;86.00;;;;;;5054625;28;20029;-77
2022/07/13 03:21:12;;;;;;;1.73;0.90;;;20.00;86.30;;;;;;5057231;28;20067;-78
2022/07/13 03:23:37;;;;;;;6.15;1.90;;;20.10;86.50;;;;;;5066235;28;20028;-78
2022/07/13 03:26:03;;;;;;;2.50;1.08;;;20.00;86.40;;;;;;5073503;28;20531;-77
2022/07/13 03:28:29;;;;;;;2.22;1.00;;;20.00;86.60;;;;;;5073509;28;20033;-77
2022/07/13 03:30:54;;;;;;;1.23;0.95;;;20.10;86.90;;;;;;5068972;28;20094;-78
2022/07/13 03:33:20;;;;;;;1.55;0.77;;;20.10;86.70;;;;;;5064378;28;20727;-78
2022/07/13 03:35:45;;;;;;;1.40;1.02;;;20.10;87.10;;;;;;5060085;28;20032;-79
2022/07/13 03:38:11;;;;;;;4.60;1.20;;;20.10;87.30;;;;;;5051678;28;20033;-81
2022/07/13 03:40:36;;;;;;;1.27;0.73;;;20.10;87.50;;;;;;5047580;28;20415;-79
2022/07/13 03:43:02;;;;;;;1.50;0.70;;;20.10;87.70;;;;;;5064141;28;20480;-78
2022/07/13 03:45:27;;;;;;;2.35;1.13;;;20.20;87.90;;;;;;5063774;28;20032;-80
2022/07/13 03:47:53;;;;;;;2.65;0.90;;;20.20;87.90;;;;;;5050913;28;20031;-80
2022/07/13 03:50:19;;;;;;;2.28;0.95;;;20.20;88.00;;;;;;5052679;28;20025;-78
2022/07/13 03:52:44;;;;;;;3.50;1.30;;;20.20;88.30;;;;;;5067272;28;20103;-78
2022/07/13 03:55:10;;;;;;;1.10;0.80;;;20.20;88.40;;;;;;5061788;28;20028;-78
2022/07/13 03:57:35;;;;;;;1.40;0.80;;;20.20;88.30;;;;;;5047447;28;20075;-78
2022/07/13 04:00:01;;;;;;;1.42;0.93;;;20.30;88.30;;;;;;5063019;28;20074;-80
2022/07/13 04:02:27;;;;;;;1.30;0.90;;;20.30;88.40;;;;;;5065447;28;20727;-78
2022/07/13 04:04:52;;;;;;;1.80;1.00;;;20.30;88.40;;;;;;5071516;28;20116;-78
2022/07/13 04:07:17;;;;;;;1.85;1.20;;;20.30;88.60;;;;;;5064551;28;20398;-78
2022/07/13 04:09:43;;;;;;;1.60;0.90;;;20.30;88.40;;;;;;5062436;28;20024;-78
2022/07/13 04:12:09;;;;;;;2.05;1.05;;;20.40;88.20;;;;;;5065106;28;20100;-78
2022/07/13 04:14:34;;;;;;;2.35;0.98;;;20.40;88.70;;;;;;5067229;28;20044;-79
2022/07/13 04:17:00;;;;;;;1.58;0.70;;;20.40;89.00;;;;;;5065231;28;20028;-78
2022/07/13 04:19:25;;;;;;;2.08;0.70;;;20.50;89.10;;;;;;5052756;28;20028;-78
2022/07/13 04:21:51;;;;;;;1.27;0.85;;;20.50;88.80;;;;;;5065957;28;20510;-77
2022/07/13 04:24:16;;;;;;;2.92;1.00;;;20.50;88.60;;;;;;5068951;28;20467;-81
2022/07/13 04:26:42;;;;;;;2.17;0.93;;;20.60;88.40;;;;;;5070234;28;20379;-78
2022/07/13 04:29:07;;;;;;;1.88;1.13;;;20.60;88.20;;;;;;5054902;28;20106;-80
2022/07/13 04:31:33;;;;;;;1.33;0.77;;;20.70;88.20;;;;;;5067932;28;20028;-81
2022/07/13 04:33:58;;;;;;;1.50;0.95;;;20.70;88.00;;;;;;5068724;28;20032;-82
2022/07/13 04:36:24;;;;;;;2.47;0.88;;;20.70;88.00;;;;;;5066387;28;20032;-78
2022/07/13 04:38:49;;;;;;;1.98;1.02;;;20.80;87.90;;;;;;5065618;28;20576;-76
2022/07/13 04:41:15;;;;;;;1.60;0.85;;;20.80;87.60;;;;;;5037979;28;20441;-78
2022/07/13 04:43:45;;;;;;;4.72;0.90;;;20.80;87.70;;;;;;5072400;28;20032;-78
2022/07/13 04:46:11;;;;;;;3.70;1.00;;;20.90;87.30;;;;;;5066515;28;20060;-78
2022/07/13 04:48:36;;;;;;;7.78;1.48;;;21.00;87.30;;;;;;5064448;28;20101;-78
2022/07/13 04:51:02;;;;;;;2.50;0.95;;;21.00;86.90;;;;;;5065050;28;20028;-78
2022/07/13 04:53:27;;;;;;;3.35;1.10;;;21.00;86.30;;;;;;5070095;28;20540;-78
2022/07/13 04:55:53;;;;;;;1.27;0.80;;;21.00;86.60;;;;;;5070278;28;20478;-80
2022/07/13 04:58:18;;;;;;;3.95;1.20;;;21.00;86.90;;;;;;5072238;28;20056;-78
2022/07/13 05:00:44;;;;;;;5.40;0.85;;;21.10;86.80;;;;;;5044361;28;20037;-81
2022/07/13 05:03:09;;;;;;;5.35;1.02;;;21.10;86.70;;;;;;5050432;28;20028;-79
2022/07/13 05:05:35;;;;;;;1.27;0.70;;;21.20;87.20;;;;;;5051592;28;20044;-79
2022/07/13 05:08:01;;;;;;;2.78;0.70;;;21.20;87.20;;;;;;5070215;28;20037;-78
2022/07/13 05:10:28;;;;;;;5.18;1.00;;;21.20;87.20;;;;;;5053812;28;20456;-78
2022/07/13 05:12:54;;;;;;;5.15;0.90;;;21.30;86.80;;;;;;5063102;28;20387;-81
2022/07/13 05:15:20;;;;;;;2.85;1.00;;;21.30;86.90;;;;;;5049322;28;20044;-78
2022/07/13 05:17:45;;;;;;;1.13;0.68;;;21.40;86.60;;;;;;5061685;28;20033;-77
2022/07/13 05:20:12;;;;;;;2.78;0.82;;;21.30;85.60;;;;;;5059723;28;20024;-78
2022/07/13 05:22:37;;;;;;;6.45;1.38;;;21.40;85.70;;;;;;5052061;28;20667;-77
2022/07/13 05:25:03;;;;;;;6.15;1.00;;;21.40;85.80;;;;;;5063597;28;20037;-78
2022/07/13 05:27:29;;;;;;;2.90;1.20;;;21.40;86.60;;;;;;5045776;28;20032;-77
2022/07/13 05:29:54;;;;;;;1.30;0.70;;;21.50;86.30;;;;;;5050946;28;20577;-78
2022/07/13 05:32:20;;;;;;;10.50;1.10;;;21.50;86.00;;;;;;5060640;28;20037;-78
2022/07/13 05:34:45;;;;;;;5.00;0.88;;;21.60;85.60;;;;;;5067190;28;21485;-84
2022/07/13 05:37:11;;;;;;;3.35;0.90;;;21.70;86.60;;;;;;5040674;28;20158;-83
2022/07/13 05:39:36;;;;;;;7.15;2.05;;;21.70;86.50;;;;;;5047053;28;20043;-81
2022/07/13 05:42:02;;;;;;;2.17;1.17;;;21.80;85.40;;;;;;5049456;28;20642;-80
2022/07/13 05:44:28;;;;;;;4.00;0.85;;;21.80;84.50;;;;;;5071179;28;20044;-78
2022/07/13 05:46:54;;;;;;;1.75;0.90;;;21.90;85.00;;;;;;5049425;28;20028;-79
2022/07/13 05:49:20;;;;;;;5.35;1.42;;;22.00;84.10;;;;;;5069061;28;20028;-78
2022/07/13 05:51:45;;;;;;;1.42;0.80;;;22.00;84.80;;;;;;5068419;28;20043;-78
2022/07/13 05:54:11;;;;;;;5.88;0.95;;;22.10;84.80;;;;;;5068351;28;20029;-78
2022/07/13 05:56:37;;;;;;;5.07;1.05;;;22.20;85.20;;;;;;5049611;28;20375;-77
2022/07/13 05:59:02;;;;;;;3.72;1.15;;;22.30;85.20;;;;;;5066093;28;20060;-78
2022/07/13 06:01:27;;;;;;;10.50;0.95;;;22.40;82.80;;;;;;5067992;28;20033;-78
2022/07/13 06:03:53;;;;;;;5.53;1.02;;;22.50;83.30;;;;;;5067583;28;20565;-78
2022/07/13 06:06:18;;;;;;;1.75;1.30;;;22.50;82.70;;;;;;5068732;28;20032;-77
2022/07/13 06:08:44;;;;;;;2.88;0.90;;;22.60;82.40;;;;;;5067889;28;20036;-79
2022/07/13 06:11:09;;;;;;;8.50;1.20;;;22.70;82.10;;;;;;5061511;28;20024;-80
2022/07/13 06:13:35;;;;;;;3.25;0.80;;;22.80;82.20;;;;;;5049598;28;20116;-78
2022/07/13 06:16:01;;;;;;;7.75;1.35;;;22.80;81.90;;;;;;5066771;28;20040;-79
2022/07/13 06:18:27;;;;;;;4.38;0.80;;;22.90;81.10;;;;;;5068407;28;20104;-77
2022/07/13 06:20:53;;;;;;;4.10;0.90;;;23.00;81.60;;;;;;5065162;28;20036;-77
2022/07/13 06:23:20;;;;;;;3.78;1.17;;;23.10;81.00;;;;;;5064197;28;20031;-80
2022/07/13 06:25:46;;;;;;;1.13;0.60;;;23.20;81.60;;;;;;5061616;28;20089;-78
2022/07/13 06:28:12;;;;;;;4.30;0.85;;;23.20;80.00;;;;;;5080343;28;20021;-77
2022/07/13 06:30:38;;;;;;;2.38;0.93;;;23.30;80.60;;;;;;5054600;28;20138;-77
2022/07/13 06:33:03;;;;;;;2.88;0.93;;;23.50;80.50;;;;;;5065721;28;20497;-76
2022/07/13 06:35:29;;;;;;;4.00;1.20;;;23.60;79.80;;;;;;5062809;28;20093;-77
2022/07/13 06:37:55;;;;;;;5.03;0.85;;;23.70;79.70;;;;;;5069113;28;20028;-80
2022/07/13 06:40:21;;;;;;;3.95;1.00;;;23.80;79.50;;;;;;5068542;28;20051;-80
2022/07/13 06:42:47;;;;;;;2.80;1.00;;;23.90;80.00;;;;;;5067903;28;20438;-78
2022/07/13 06:45:13;;;;;;;5.68;0.90;;;24.00;79.00;;;;;;5050759;28;20029;-77
2022/07/13 06:47:39;;;;;;;3.08;1.15;;;24.10;78.50;;;;;;5043004;28;20032;-78
2022/07/13 06:50:08;;;;;;;10.68;0.90;;;24.20;77.90;;;;;;5048894;28;20387;-77
2022/07/13 06:52:33;;;;;;;3.42;0.90;;;24.30;77.90;;;;;;5059581;28;20028;-78
2022/07/13 06:54:59;;;;;;;3.45;1.00;;;24.40;78.00;;;;;;5069034;28;20035;-78
2022/07/13 06:57:25;;;;;;;3.60;1.35;;;24.40;77.50;;;;;;5050007;28;20040;-78
2022/07/13 06:59:50;;;;;;;1.50;0.80;;;24.50;79.50;;;;;;5050042;28;20024;-77
2022/07/13 07:02:16;;;;;;;7.78;1.38;;;24.50;77.80;;;;;;5047994;28;20112;-79
2022/07/13 07:04:41;;;;;;;1.38;0.77;;;24.50;77.20;;;;;;5068427;28;20040;-80
2022/07/13 07:07:09;;;;;;;4.05;0.77;;;24.70;78.20;;;;;;5049221;28;20119;-78
2022/07/13 07:09:35;;;;;;;2.78;1.38;;;24.80;76.80;;;;;;5062800;28;20032;-79
2022/07/13 07:12:01;;;;;;;1.65;0.88;;;24.90;77.30;;;;;;5067955;28;20029;-78
2022/07/13 07:14:26;;;;;;;1.63;0.88;;;25.00;78.00;;;;;;5056101;28;20108;-79
2022/07/13 07:16:52;;;;;;;3.25;0.88;;;25.10;75.90;;;;;;5067950;28;20832;-79
2022/07/13 07:19:17;;;;;;;3.13;0.90;;;25.20;76.40;;;;;;5049758;28;20024;-79
2022/07/13 07:21:42;;;;;;;2.55;0.82;;;25.30;76.20;;;;;;5067818;28;20119;-78
2022/07/13 07:24:08;;;;;;;4.10;0.88;;;25.40;76.60;;;;;;5059512;28;20482;-78
2022/07/13 07:26:33;;;;;;;2.80;0.80;;;25.40;75.70;;;;;;5068625;28;20083;-80
2022/07/13 07:28:59;;;;;;;2.15;0.70;;;25.50;75.80;;;;;;5057166;28;20444;-83
2022/07/13 07:31:25;;;;;;;3.50;0.70;;;25.50;75.60;;;;;;5065177;28;20047;-79
2022/07/13 07:33:52;;;;;;;2.17;0.90;;;25.60;75.20;;;;;;5039264;28;20034;-78
2022/07/13 07:36:17;;;;;;;2.17;0.82;;;25.60;76.00;;;;;;5057879;28;20074;-78
2022/07/13 07:38:43;;;;;;;2.55;1.05;;;25.70;76.50;;;;;;5072745;28;20068;-79
2022/07/13 07:41:10;;;;;;;2.60;1.20;;;25.80;76.20;;;;;;5070429;28;20048;-79
2022/07/13 07:43:36;;;;;;;2.67;1.08;;;25.80;74.40;;;;;;5053828;28;20021;-79
2022/07/13 07:46:02;;;;;;;2.55;0.73;;;25.90;74.90;;;;;;5058611;28;20516;-79
2022/07/13 07:48:27;;;;;;;5.68;1.13;;;26.00;74.50;;;;;;5064733;28;20044;-78
2022/07/13 07:50:53;;;;;;;1.70;0.75;;;26.10;73.20;;;;;;5041924;28;20039;-78
2022/07/13 07:53:19;;;;;;;6.78;1.20;;;26.10;73.30;;;;;;5054655;28;20020;-85
2022/07/13 07:55:44;;;;;;;4.82;0.75;;;26.20;74.50;;;;;;5070481;28;20037;-81
2022/07/13 07:58:10;;;;;;;12.55;1.23;;;26.40;73.00;;;;;;5070312;28;20032;-79
2022/07/13 08:00:35;;;;;;;7.63;0.68;;;26.60;74.00;;;;;;5065692;28;20486;-79
2022/07/13 08:03:03;;;;;;;5.57;0.70;;;26.90;72.90;;;;;;5067463;28;20036;-80
2022/07/13 08:05:30;;;;;;;2.30;0.70;;;27.00;72.10;;;;;;5052411;28;20044;-79
2022/07/13 08:07:56;;;;;;;3.10;0.60;;;27.10;72.40;;;;;;5082385;28;20085;-79
2022/07/13 08:10:21;;;;;;;1.40;0.70;;;27.20;71.60;;;;;;5071353;28;20039;-82
2022/07/13 08:12:47;;;;;;;0.95;0.50;;;27.30;73.10;;;;;;5050886;28;20029;-81
2022/07/13 08:15:13;;;;;;;2.60;0.75;;;27.40;71.10;;;;;;5067746;28;20067;-80
2022/07/13 08:17:39;;;;;;;1.20;0.40;;;27.40;70.50;;;;;;5043892;28;20359;-80
2022/07/13 08:20:06;;;;;;;3.33;0.70;;;27.50;69.10;;;;;;5061095;28;20036;-80
2022/07/13 08:22:31;;;;;;;1.65;0.63;;;27.40;69.90;;;;;;5068489;28;20115;-80
2022/07/13 08:24:57;;;;;;;3.65;0.70;;;27.50;71.10;;;;;;5069906;28;20112;-80
2022/07/13 08:27:22;;;;;;;2.28;0.52;;;27.60;70.50;;;;;;5068908;28;20043;-79
2022/07/13 08:29:48;;;;;;;2.33;0.57;;;27.60;69.20;;;;;;5054267;28;20024;-80
2022/07/13 08:32:14;;;;;;;2.92;0.52;;;27.60;69.50;;;;;;5053858;28;20154;-84
2022/07/13 08:40:09;;;;;;;6.57;0.80;;;27.70;69.80;;;;;;5069987;28;20167;-79
2022/07/13 08:42:35;;;;;;;6.07;0.80;;;27.80;68.80;;;;;;5071137;28;20478;-80
2022/07/13 08:45:02;;;;;;;4.82;0.63;;;27.90;70.70;;;;;;5052801;28;20064;-80
2022/07/13 08:47:30;;;;;;;3.38;0.63;;;27.90;70.90;;;;;;5051114;28;20072;-80
2022/07/13 08:50:05;;;;;;;1.20;0.65;;;28.00;69.50;;;;;;5069407;28;20048;-80
2022/07/13 08:52:31;;;;;;;1.70;0.50;;;28.10;67.80;;;;;;5071165;28;20083;-80
2022/07/13 08:54:58;;;;;;;1.50;0.60;;;28.20;67.00;;;;;;5051043;28;20466;-81
2022/07/13 08:57:24;;;;;;;3.13;0.60;;;28.30;69.00;;;;;;5051465;28;20079;-80
2022/07/13 08:59:51;;;;;;;0.50;0.40;;;28.40;66.70;;;;;;5053891;28;20032;-81
2022/07/13 09:02:16;;;;;;;5.28;0.60;;;28.50;66.60;;;;;;5065554;28;20040;-80
2022/07/13 09:04:42;;;;;;;4.43;0.50;;;28.70;68.00;;;;;;5052713;28;20029;-79
2022/07/13 09:07:11;;;;;;;1.10;0.60;;;28.90;67.40;;;;;;5070443;28;20543;-83
2022/07/13 09:09:38;;;;;;;4.43;0.55;;;29.00;64.80;;;;;;5053063;28;20056;-83
2022/07/13 09:12:19;;;;;;;1.73;0.40;;;29.00;65.70;;;;;;5067520;28;20056;-84
2022/07/13 09:14:50;;;;;;;2.00;0.30;;;29.20;65.90;;;;;;5067763;28;20031;-79
2022/07/13 09:17:33;;;;;;;5.07;0.70;;;29.30;63.40;;;;;;5068279;28;20036;-79
2022/07/13 09:20:03;;;;;;;2.67;0.75;;;29.40;65.70;;;;;;5074415;28;20029;-80
2022/07/13 09:22:29;;;;;;;3.88;0.57;;;29.60;64.60;;;;;;5070192;28;20103;-83
2022/07/13 09:24:54;;;;;;;3.15;0.40;;;29.70;62.90;;;;;;5062231;28;20119;-82
2022/07/13 09:27:21;;;;;;;0.52;0.40;;;29.70;62.40;;;;;;5046981;28;20440;-84
2022/07/13 09:29:47;;;;;;;4.03;0.70;;;29.80;62.50;;;;;;5065622;28;20048;-80
2022/07/13 09:32:13;;;;;;;1.40;0.50;;;29.90;62.60;;;;;;5080836;28;20473;-80
2022/07/13 09:34:51;;;;;;;0.80;0.38;;;29.90;61.10;;;;;;5049895;28;20032;-80
2022/07/13 09:37:22;;;;;;;1.45;0.40;;;29.90;60.50;;;;;;5069093;28;20458;-84
2022/07/13 09:40:09;;;;;;;1.55;0.50;;;29.80;61.70;;;;;;5070677;28;20025;-88
2022/07/13 09:42:37;;;;;;;2.45;0.40;;;29.80;60.20;;;;;;5067973;28;20029;-82
2022/07/13 09:47:53;;;;;;;3.13;0.50;;;29.90;59.80;;;;;;5054253;28;20052;-80
2022/07/13 09:50:20;;;;;;;0.52;0.40;;;30.00;60.60;;;;;;5084588;28;20481;-84
2022/07/13 09:52:47;;;;;;;1.58;0.60;;;30.00;60.10;;;;;;5037326;28;20466;-86
2022/07/13 09:55:19;;;;;;;0.95;0.50;;;30.00;59.20;;;;;;5043499;28;20025;-82
2022/07/13 09:57:51;;;;;;;1.92;0.30;;;30.00;59.20;;;;;;5066853;28;20032;-81
2022/07/13 10:00:17;;;;;;;;;;;29.80;59.80;;;;;;5052072;28;20483;-82
2022/07/13 10:02:46;;;;;;;0.60;0.50;;;29.90;60.70;;;;;;5052116;28;20007;-82
2022/07/13 10:05:17;;;;;;;1.95;0.50;;;29.90;60.20;;;;;;5050301;28;20390;-81
2022/07/13 10:07:45;;;;;;;1.52;0.52;;;30.10;59.70;;;;;;5073080;28;20127;-82
2022/07/13 10:10:16;;;;;;;1.70;0.50;;;30.20;60.70;;;;;;5064093;28;20033;-81
2022/07/13 10:12:43;;;;;;;0.95;0.40;;;30.50;60.20;;;;;;5056281;28;20478;-82
2022/07/13 10:15:11;;;;;;;3.65;0.50;;;30.80;57.80;;;;;;5055113;28;20029;-85
2022/07/13 10:17:38;;;;;;;1.67;0.47;;;31.10;58.40;;;;;;5059237;28;20572;-81
2022/07/13 10:20:08;;;;;;;1.80;0.50;;;31.40;55.70;;;;;;5080155;28;20047;-85
2022/07/13 10:22:46;;;;;;;3.67;0.50;;;31.50;55.60;;;;;;5045275;28;20035;-84
2022/07/13 10:25:13;;;;;;;3.05;0.47;;;31.50;55.90;;;;;;5048297;28;20044;-81
2022/07/13 10:27:41;;;;;;;2.58;0.50;;;31.60;55.10;;;;;;5053390;28;20032;-83
2022/07/13 10:30:09;;;;;;;5.28;0.90;;;31.70;55.40;;;;;;5065406;28;20031;-81
2022/07/13 10:32:40;;;;;;;1.05;0.50;;;31.70;55.20;;;;;;5056353;28;20021;-80
2022/07/13 10:35:09;;;;;;;1.20;0.30;;;31.80;54.90;;;;;;5061137;28;20495;-83
2022/07/13 10:37:56;;;;;;;1.33;0.30;;;31.90;52.40;;;;;;5070308;28;20032;-83
2022/07/13 10:40:23;;;;;;;2.33;0.52;;;31.90;52.70;;;;;;5048478;28;20036;-83
2022/07/13 10:42:54;;;;;;;2.35;0.40;;;31.90;52.20;;;;;;5045503;28;20062;-82
2022/07/13 10:45:38;;;;;;;1.70;0.43;;;31.70;52.50;;;;;;5061541;28;20119;-82
2022/07/13 10:48:25;;;;;;;0.88;0.25;;;31.50;51.80;;;;;;5061841;28;20435;-84
2022/07/13 10:50:59;;;;;;;1.40;0.50;;;31.40;52.50;;;;;;5070543;28;20031;-83
2022/07/13 10:53:55;;;;;;;5.78;0.50;;;31.20;55.00;;;;;;5055267;28;20456;-82
2022/07/13 10:56:21;;;;;;;0.80;0.35;;;31.10;53.90;;;;;;5040851;28;20114;-82
2022/07/13 10:58:49;;;;;;;1.08;0.50;;;31.00;54.50;;;;;;5047122;28;20077;-86
2022/07/13 11:01:38;;;;;;;1.13;0.45;;;30.90;52.90;;;;;;5035852;28;20044;-82
2022/07/13 11:04:05;;;;;;;0.85;0.20;;;30.80;51.70;;;;;;5069026;28;20108;-86
2022/07/13 11:06:32;;;;;;;0.70;0.30;;;30.80;52.40;;;;;;5066645;28;20610;-82
2022/07/13 11:09:24;;;;;;;0.70;0.32;;;30.60;51.70;;;;;;5051143;28;20033;-82
2022/07/13 11:11:51;;;;;;;0.80;0.40;;;30.50;52.30;;;;;;5039511;28;20496;-82
2022/07/13 11:14:35;;;;;;;2.20;0.40;;;30.40;52.10;;;;;;5064209;28;20145;-84
2022/07/13 11:17:21;;;;;;;4.18;0.40;;;30.40;52.90;;;;;;5054110;28;20477;-80
2022/07/13 11:20:09;;;;;;;0.70;0.38;;;30.40;52.40;;;;;;5045806;28;20437;-83
2022/07/13 11:25:42;;;;;;;4.32;0.40;;;30.50;51.90;;;;;;5061064;28;20027;-81
2022/07/13 11:28:41;;;;;;;1.10;0.40;;;30.70;53.30;;;;;;5060528;28;20044;-85
2022/07/13 11:31:08;;;;;;;0.50;0.40;;;30.90;51.80;;;;;;5058709;28;20032;-82
2022/07/13 11:33:34;;;;;;;2.47;0.40;;;31.10;51.40;;;;;;5060046;28;20071;-81
2022/07/13 11:36:00;;;;;;;0.60;0.30;;;31.20;51.80;;;;;;5062952;28;20458;-80
2022/07/13 11:38:35;;;;;;;3.90;0.60;;;31.40;51.30;;;;;;5042306;28;20490;-81
2022/07/13 11:41:00;;;;;;;0.47;0.30;;;31.70;50.80;;;;;;5075517;28;20048;-80
2022/07/13 11:43:26;;;;;;;1.90;0.45;;;31.90;48.60;;;;;;5046829;28;20029;-81
2022/07/13 11:45:51;;;;;;;5.68;0.40;;;32.10;51.30;;;;;;5070211;28;20563;-84
2022/07/13 11:48:17;;;;;;;1.50;0.75;;;32.30;48.40;;;;;;5049129;28;20260;-81
2022/07/13 11:50:50;;;;;;;2.95;0.60;;;32.30;48.70;;;;;;5061400;28;20043;-81
2022/07/13 11:53:29;;;;;;;0.52;0.30;;;32.40;49.10;;;;;;5064149;28;20614;-80
2022/07/13 11:56:03;;;;;;;0.52;0.40;;;32.50;49.40;;;;;;5046312;28;20032;-81
2022/07/13 11:58:33;;;;;;;1.10;0.43;;;32.50;47.20;;;;;;5050335;28;20108;-81
2022/07/13 12:01:00;;;;;;;0.75;0.45;;;32.60;47.40;;;;;;5067825;28;20317;-78
2022/07/13 12:03:27;;;;;;;0.85;0.30;;;32.50;46.80;;;;;;5039973;28;20062;-80
2022/07/13 12:05:58;;;;;;;1.30;0.43;;;32.30;46.20;;;;;;5061704;28;20510;-82
2022/07/13 12:08:24;;;;;;;1.65;0.55;;;32.30;47.70;;;;;;5046672;28;20029;-81
2022/07/13 12:10:50;;;;;;;1.70;0.35;;;32.30;46.10;;;;;;5056645;28;20024;-80
2022/07/13 12:13:16;;;;;;;1.58;0.50;;;32.30;46.20;;;;;;5069719;28;20028;-83
2022/07/13 12:15:44;;;;;;;1.20;0.50;;;32.30;46.20;;;;;;5047272;28;20043;-83
2022/07/13 12:18:12;;;;;;;3.33;0.40;;;32.30;47.50;;;;;;5067769;28;20036;-82
2022/07/13 12:20:38;;;;;;;1.63;0.45;;;32.40;47.70;;;;;;5070577;28;20025;-82
2022/07/13 12:23:06;;;;;;;2.75;0.45;;;32.60;47.50;;;;;;5058753;28;20035;-84
2022/07/13 12:25:35;;;;;;;1.00;0.50;;;32.70;47.50;;;;;;5055673;28;20037;-85
2022/07/13 12:28:04;;;;;;;1.00;0.50;;;32.80;47.80;;;;;;5055015;28;20045;-81
2022/07/13 12:30:31;;;;;;;3.80;0.60;;;32.80;47.70;;;;;;5055953;28;20371;-85
2022/07/13 12:33:09;;;;;;;1.65;0.60;;;32.80;47.40;;;;;;5070925;28;20032;-83
2022/07/13 12:35:37;;;;;;;1.08;0.40;;;32.70;46.40;;;;;;5033902;28;20075;-86
2022/07/13 12:38:09;;;;;;;2.63;0.68;;;32.70;48.00;;;;;;5087477;28;20065;-81
2022/07/13 12:40:38;;;;;;;1.25;0.60;;;32.70;47.00;;;;;;5072726;28;20033;-79
2022/07/13 12:43:04;;;;;;;0.82;0.50;;;32.80;47.20;;;;;;5067271;28;20040;-80
2022/07/13 12:45:30;;;;;;;2.03;0.45;;;32.70;48.40;;;;;;5050335;28;20178;-78
2022/07/13 12:47:56;;;;;;;4.82;0.50;;;32.80;46.70;;;;;;5067342;28;20071;-79
2022/07/13 12:50:29;;;;;;;3.25;0.50;;;32.90;46.80;;;;;;5067571;28;20490;-79
2022/07/13 12:53:01;;;;;;;2.42;0.80;;;32.90;47.70;;;;;;5067104;28;20167;-78
2022/07/13 12:55:27;;;;;;;;;;;32.90;46.40;;;;;;5069223;28;20036;-79
2022/07/13 12:57:53;;;;;;;1.15;0.63;;;32.70;46.80;;;;;;5068685;28;19912;-77
2022/07/13 13:00:24;;;;;;;4.70;0.50;;;32.50;47.20;;;;;;5058969;28;20044;-78